createdAt,value
2019-02-11T00:00:02.200Z,91.49
2019-02-11T00:01:02.213Z,91.60
2019-02-11T00:02:02.177Z,91.28
2019-02-11T00:03:02.166Z,91.39
2019-02-11T00:04:02.156Z,91.18
2019-02-11T00:05:02.145Z,91.60
2019-02-11T00:06:02.158Z,91.60
2019-02-11T00:07:02.122Z,91.12
2019-02-11T00:08:02.109Z,91.43
2019-02-11T00:09:02.099Z,91.43
2019-02-11T00:10:02.089Z,91.53
2019-02-11T00:11:02.102Z,91.08
2019-02-11T00:12:02.066Z,91.12
2019-02-11T00:13:10.133Z,91.64
2019-02-11T00:14:03.090Z,91.43
2019-02-11T00:15:02.032Z,91.70
2019-02-11T00:16:02.045Z,91.28
2019-02-11T00:17:02.012Z,91.43
2019-02-11T00:18:02.008Z,91.49
2019-02-11T00:19:01.989Z,91.53
2019-02-11T00:20:01.976Z,91.39
2019-02-11T00:21:01.990Z,91.74
2019-02-11T00:22:01.955Z,91.43
2019-02-11T00:23:01.943Z,91.64
2019-02-11T00:24:01.933Z,91.85
2019-02-11T00:25:01.922Z,92.36
2019-02-11T00:26:01.933Z,92.32
2019-02-11T00:27:01.900Z,91.74
2019-02-11T00:28:01.891Z,91.22
2019-02-11T00:29:01.914Z,91.22
2019-02-11T00:30:01.864Z,91.53
2019-02-11T00:31:01.862Z,92.26
2019-02-11T00:32:01.866Z,91.33
2019-02-11T00:33:01.832Z,91.64
2019-02-11T00:34:01.820Z,92.05
2019-02-11T00:35:01.809Z,92.16
2019-02-11T00:36:01.800Z,92.16
2019-02-11T00:37:01.810Z,92.32
2019-02-11T00:38:01.777Z,92.57
2019-02-11T00:39:01.767Z,92.74
2019-02-11T00:40:01.756Z,91.80
2019-02-11T00:41:01.746Z,91.85
2019-02-11T00:42:01.756Z,91.85
2019-02-11T00:43:01.721Z,91.39
2019-02-11T00:44:01.709Z,92.36
2019-02-11T00:45:01.701Z,92.47
2019-02-11T00:46:01.690Z,92.36
2019-02-11T00:47:01.701Z,92.16
2019-02-11T00:48:01.666Z,92.05
2019-02-11T00:49:01.660Z,91.85
2019-02-11T00:50:01.643Z,92.57
2019-02-11T00:51:01.632Z,91.85
2019-02-11T00:52:01.649Z,91.12
2019-02-11T00:53:01.615Z,91.53
2019-02-11T00:54:01.602Z,91.33
2019-02-11T00:55:01.590Z,91.85
2019-02-11T00:56:01.577Z,91.74
2019-02-11T00:57:01.591Z,91.33
2019-02-11T00:58:01.556Z,91.74
2019-02-11T00:59:01.551Z,91.47
2019-02-11T01:00:01.534Z,91.12
2019-02-11T01:01:01.521Z,91.58
2019-02-11T01:02:01.533Z,91.58
2019-02-11T01:03:01.498Z,91.89
2019-02-11T01:04:01.489Z,92.51
2019-02-11T01:05:01.575Z,92.51
2019-02-11T01:06:01.466Z,92.20
2019-02-11T01:07:01.480Z,92.61
2019-02-11T01:08:01.445Z,91.95
2019-02-11T01:09:01.432Z,92.41
2019-02-11T01:10:01.420Z,92.61
2019-02-11T01:11:01.411Z,92.20
2019-02-11T01:12:01.423Z,92.41
2019-02-11T01:13:01.386Z,91.58
2019-02-11T01:14:01.380Z,91.47
2019-02-11T01:15:01.367Z,92.72
2019-02-11T01:16:01.356Z,92.30
2019-02-11T01:17:01.366Z,92.51
2019-02-11T01:18:01.332Z,93.44
2019-02-11T01:19:01.321Z,93.33
2019-02-11T01:20:01.311Z,93.65
2019-02-11T01:21:01.298Z,93.33
2019-02-11T01:22:01.311Z,93.65
2019-02-11T01:23:01.277Z,93.75
2019-02-11T01:24:01.266Z,92.82
2019-02-11T01:25:01.261Z,93.23
2019-02-11T01:26:01.245Z,92.82
2019-02-11T01:27:01.255Z,93.02
2019-02-11T01:28:01.221Z,93.33
2019-02-11T01:29:01.209Z,92.51
2019-02-11T01:30:01.199Z,92.76
2019-02-11T01:31:01.186Z,92.82
2019-02-11T01:32:01.201Z,93.13
2019-02-11T01:33:01.165Z,93.65
2019-02-11T01:34:01.168Z,92.72
2019-02-11T01:35:01.145Z,92.35
2019-02-11T01:36:01.133Z,92.41
2019-02-11T01:37:01.144Z,92.51
2019-02-11T01:38:01.109Z,92.10
2019-02-11T01:39:01.098Z,91.99
2019-02-11T01:40:01.087Z,92.61
2019-02-11T01:41:01.076Z,92.24
2019-02-11T01:42:01.089Z,93.13
2019-02-11T01:43:01.056Z,92.72
2019-02-11T01:44:01.045Z,93.65
2019-02-11T01:45:01.032Z,93.65
2019-02-11T01:46:01.020Z,93.38
2019-02-11T01:47:01.033Z,92.41
2019-02-11T01:48:00.999Z,92.66
2019-02-11T01:49:00.988Z,92.45
2019-02-11T01:50:00.976Z,92.55
2019-02-11T01:51:00.965Z,92.61
2019-02-11T01:52:00.979Z,92.97
2019-02-11T01:53:00.944Z,92.30
2019-02-11T01:54:00.935Z,92.03
2019-02-11T01:55:00.922Z,92.03
2019-02-11T01:56:00.911Z,91.62
2019-02-11T01:57:00.926Z,92.66
2019-02-11T01:58:00.887Z,92.45
2019-02-11T01:59:00.876Z,92.35
2019-02-11T02:00:00.865Z,92.14
2019-02-11T02:01:00.855Z,92.76
2019-02-11T02:02:00.869Z,93.07
2019-02-11T02:03:00.832Z,93.38
2019-02-11T02:04:00.821Z,94.21
2019-02-11T02:05:00.810Z,94.21
2019-02-11T02:06:00.799Z,93.28
2019-02-11T02:07:00.824Z,94.21
2019-02-11T02:08:00.777Z,94.11
2019-02-11T02:09:00.766Z,93.28
2019-02-11T02:10:00.758Z,93.54
2019-02-11T02:11:00.743Z,93.38
2019-02-11T02:12:00.734Z,93.38
2019-02-11T02:13:00.745Z,93.80
2019-02-11T02:14:00.710Z,93.28
2019-02-11T02:15:00.701Z,92.93
2019-02-11T02:16:00.689Z,92.76
2019-02-11T02:17:00.679Z,92.55
2019-02-11T02:18:00.689Z,92.45
2019-02-11T02:19:00.655Z,92.55
2019-02-11T02:20:00.643Z,93.07
2019-02-11T02:21:00.634Z,93.07
2019-02-11T02:22:00.622Z,92.86
2019-02-11T02:23:00.633Z,92.55
2019-02-11T02:24:00.600Z,92.97
2019-02-11T02:25:00.587Z,93.18
2019-02-11T02:26:00.579Z,92.66
2019-02-11T02:27:00.567Z,92.66
2019-02-11T02:28:00.582Z,92.35
2019-02-11T02:29:00.543Z,92.66
2019-02-11T02:30:00.677Z,92.55
2019-02-11T02:31:00.527Z,92.66
2019-02-11T02:32:00.510Z,92.97
2019-02-11T02:33:00.529Z,92.86
2019-02-11T02:34:00.489Z,92.35
2019-02-11T02:35:00.486Z,92.86
2019-02-11T02:36:00.466Z,92.35
2019-02-11T02:37:00.456Z,93.18
2019-02-11T02:38:00.467Z,93.02
2019-02-11T02:39:00.435Z,92.97
2019-02-11T02:40:00.420Z,92.97
2019-02-11T02:41:00.409Z,92.82
2019-02-11T02:42:00.402Z,93.23
2019-02-11T02:43:00.411Z,92.93
2019-02-11T02:44:00.376Z,93.65
2019-02-11T02:45:00.389Z,93.44
2019-02-11T02:46:00.357Z,92.93
2019-02-11T02:47:00.343Z,92.93
2019-02-11T02:48:00.371Z,92.61
2019-02-11T02:49:00.323Z,92.51
2019-02-11T02:50:00.311Z,92.41
2019-02-11T02:51:00.301Z,92.30
2019-02-11T02:52:00.288Z,92.51
2019-02-11T02:53:00.304Z,91.68
2019-02-11T02:54:00.266Z,92.61
2019-02-11T02:55:00.257Z,92.51
2019-02-11T02:56:00.245Z,92.41
2019-02-11T02:57:00.232Z,92.61
2019-02-11T02:58:00.244Z,92.51
2019-02-11T02:59:00.213Z,91.68
2019-02-11T03:00:00.424Z,91.58
2019-02-11T03:01:00.189Z,91.27
2019-02-11T03:02:00.177Z,90.70
2019-02-11T03:03:00.190Z,91.06
2019-02-11T03:04:00.158Z,90.85
2019-02-11T03:05:00.407Z,91.27
2019-02-11T03:06:00.132Z,91.22
2019-02-11T03:07:00.120Z,91.53
2019-02-11T03:08:00.135Z,91.02
2019-02-11T03:09:00.100Z,90.81
2019-02-11T03:10:00.228Z,90.50
2019-02-11T03:11:00.077Z,90.70
2019-02-11T03:12:00.067Z,91.12
2019-02-11T03:13:00.079Z,90.19
2019-02-11T03:14:05.717Z,90.08
2019-02-11T03:15:01.031Z,89.56
2019-02-11T03:16:00.021Z,90.08
2019-02-11T03:17:00.010Z,90.19
2019-02-11T03:18:00.026Z,89.98
2019-02-11T03:18:59.990Z,89.98
2019-02-11T03:19:59.978Z,89.98
2019-02-11T03:20:59.966Z,90.29
2019-02-11T03:21:59.958Z,89.77
2019-02-11T03:22:59.966Z,90.08
2019-02-11T03:23:59.932Z,89.98
2019-02-11T03:24:59.923Z,89.83
2019-02-11T03:25:59.911Z,89.94
2019-02-11T03:26:59.899Z,90.14
2019-02-11T03:27:59.912Z,89.31
2019-02-11T03:28:59.877Z,89.73
2019-02-11T03:29:59.865Z,89.62
2019-02-11T03:30:59.859Z,88.90
2019-02-11T03:32:00.189Z,89.62
2019-02-11T03:32:59.863Z,89.31
2019-02-11T03:33:59.821Z,89.21
2019-02-11T03:34:59.810Z,89.62
2019-02-11T03:35:59.811Z,88.90
2019-02-11T03:36:59.787Z,89.42
2019-02-11T03:37:59.801Z,89.83
2019-02-11T03:38:59.766Z,89.52
2019-02-11T03:39:59.820Z,89.62
2019-02-11T03:40:59.743Z,89.94
2019-02-11T03:41:59.732Z,89.62
2019-02-11T03:42:59.743Z,89.73
2019-02-11T03:43:59.711Z,89.94
2019-02-11T03:44:59.701Z,90.14
2019-02-11T03:45:59.691Z,90.14
2019-02-11T03:46:59.677Z,90.56
2019-02-11T03:47:59.689Z,90.81
2019-02-11T03:48:59.663Z,90.91
2019-02-11T03:49:59.643Z,90.29
2019-02-11T03:50:59.635Z,90.14
2019-02-11T03:51:59.621Z,89.56
2019-02-11T03:52:59.612Z,91.02
2019-02-11T03:53:59.622Z,91.12
2019-02-11T03:54:59.589Z,90.81
2019-02-11T03:55:59.579Z,91.53
2019-02-11T03:56:59.566Z,91.64
2019-02-11T03:57:59.558Z,91.12
2019-02-11T03:58:59.568Z,91.49
2019-02-11T03:59:59.532Z,91.18
2019-02-11T04:00:59.522Z,91.28
2019-02-11T04:01:59.510Z,91.22
2019-02-11T04:02:59.593Z,91.28
2019-02-11T04:03:59.511Z,91.95
2019-02-11T04:04:59.477Z,91.53
2019-02-11T04:05:59.466Z,91.95
2019-02-11T04:06:59.457Z,91.43
2019-02-11T04:07:59.446Z,91.74
2019-02-11T04:08:59.458Z,91.85
2019-02-11T04:09:59.423Z,91.64
2019-02-11T04:10:59.411Z,92.05
2019-02-11T04:11:59.399Z,92.53
2019-02-11T04:12:59.391Z,91.53
2019-02-11T04:13:59.403Z,92.22
2019-02-11T04:14:59.366Z,92.16
2019-02-11T04:15:59.357Z,92.22
2019-02-11T04:16:59.343Z,92.43
2019-02-11T04:17:59.333Z,92.22
2019-02-11T04:18:59.345Z,92.22
2019-02-11T04:19:59.312Z,92.43
2019-02-11T04:20:59.306Z,92.43
2019-02-11T04:21:59.288Z,92.74
2019-02-11T04:22:59.277Z,92.32
2019-02-11T04:23:59.295Z,92.43
2019-02-11T04:24:59.256Z,92.22
2019-02-11T04:25:59.244Z,92.01
2019-02-11T04:26:59.234Z,92.32
2019-02-11T04:27:59.222Z,92.32
2019-02-11T04:28:59.237Z,91.28
2019-02-11T04:29:59.198Z,91.28
2019-02-11T04:30:59.188Z,91.49
2019-02-11T04:31:59.179Z,91.28
2019-02-11T04:32:59.167Z,91.35
2019-02-11T04:33:59.180Z,91.45
2019-02-11T04:34:59.145Z,91.03
2019-02-11T04:35:59.132Z,91.66
2019-02-11T04:36:59.132Z,91.45
2019-02-11T04:37:59.112Z,90.93
2019-02-11T04:38:59.124Z,90.31
2019-02-11T04:39:59.089Z,90.87
2019-02-11T04:40:59.076Z,91.03
2019-02-11T04:41:59.067Z,89.79
2019-02-11T04:42:59.055Z,90.10
2019-02-11T04:43:59.068Z,89.69
2019-02-11T04:44:59.034Z,89.69
2019-02-11T04:45:59.021Z,90.00
2019-02-11T04:46:59.011Z,89.17
2019-02-11T04:47:59.000Z,90.00
2019-02-11T04:48:59.011Z,89.44
2019-02-11T04:49:58.980Z,88.86
2019-02-11T04:50:58.965Z,89.17
2019-02-11T04:51:59.080Z,89.07
2019-02-11T04:52:58.943Z,88.55
2019-02-11T04:53:58.959Z,89.48
2019-02-11T04:54:58.921Z,88.92
2019-02-11T04:55:58.912Z,88.40
2019-02-11T04:56:58.902Z,88.30
2019-02-11T04:57:58.887Z,87.57
2019-02-11T04:58:58.904Z,88.65
2019-02-11T04:59:58.866Z,88.45
2019-02-11T05:00:58.854Z,87.88
2019-02-11T05:01:58.843Z,87.99
2019-02-11T05:02:58.832Z,88.09
2019-02-11T05:03:58.845Z,88.20
2019-02-11T05:04:58.811Z,87.99
2019-02-11T05:05:58.801Z,88.40
2019-02-11T05:06:58.789Z,88.09
2019-02-11T05:07:58.779Z,88.82
2019-02-11T05:08:58.792Z,88.30
2019-02-11T05:09:58.758Z,88.30
2019-02-11T05:10:58.745Z,87.99
2019-02-11T05:11:58.735Z,88.40
2019-02-11T05:12:58.723Z,88.30
2019-02-11T05:13:58.742Z,88.71
2019-02-11T05:14:58.700Z,87.99
2019-02-11T05:15:58.695Z,88.09
2019-02-11T05:16:58.680Z,88.20
2019-02-11T05:17:58.668Z,87.68
2019-02-11T05:18:58.683Z,87.99
2019-02-11T05:19:58.650Z,88.20
2019-02-11T05:20:58.637Z,86.85
2019-02-11T05:21:58.623Z,87.57
2019-02-11T05:22:58.612Z,87.16
2019-02-11T05:23:58.624Z,86.85
2019-02-11T05:24:58.590Z,86.96
2019-02-11T05:25:58.599Z,88.30
2019-02-11T05:26:58.569Z,88.26
2019-02-11T05:27:58.559Z,88.20
2019-02-11T05:28:58.575Z,87.37
2019-02-11T05:29:58.539Z,87.37
2019-02-11T05:30:58.525Z,86.44
2019-02-11T05:31:58.513Z,86.33
2019-02-11T05:32:58.512Z,86.71
2019-02-11T05:33:58.514Z,86.85
2019-02-11T05:34:58.480Z,86.85
2019-02-11T05:35:58.476Z,86.96
2019-02-11T05:36:58.460Z,86.65
2019-02-11T05:37:58.455Z,86.96
2019-02-11T05:38:58.435Z,86.65
2019-02-11T05:39:58.450Z,86.33
2019-02-11T05:40:58.412Z,86.44
2019-02-11T05:41:58.401Z,86.40
2019-02-11T05:42:58.391Z,86.96
2019-02-11T05:43:58.379Z,86.33
2019-02-11T05:44:58.391Z,86.33
2019-02-11T05:45:58.357Z,86.33
2019-02-11T05:46:58.365Z,86.09
2019-02-11T05:47:58.351Z,86.40
2019-02-11T05:48:58.322Z,87.06
2019-02-11T05:49:58.335Z,86.85
2019-02-11T05:50:58.322Z,86.44
2019-02-11T05:51:58.289Z,85.61
2019-02-11T05:52:58.279Z,86.44
2019-02-11T05:53:58.266Z,86.96
2019-02-11T05:54:58.281Z,86.65
2019-02-11T05:55:58.247Z,86.19
2019-02-11T05:56:58.237Z,85.68
2019-02-11T05:57:58.225Z,85.92
2019-02-11T05:58:58.212Z,86.09
2019-02-11T05:59:58.226Z,85.40
2019-02-11T06:00:58.190Z,85.82
2019-02-11T06:01:58.178Z,85.82
2019-02-11T06:02:58.167Z,85.50
2019-02-11T06:03:58.157Z,85.47
2019-02-11T06:04:58.169Z,85.61
2019-02-11T06:05:58.141Z,85.71
2019-02-11T06:06:58.125Z,85.92
2019-02-11T06:07:58.112Z,85.92
2019-02-11T06:08:58.102Z,86.44
2019-02-11T06:09:58.134Z,86.44
2019-02-11T06:10:58.079Z,87.27
2019-02-11T06:11:58.068Z,86.33
2019-02-11T06:12:58.058Z,85.82
2019-02-11T06:13:58.044Z,85.50
2019-02-11T06:15:04.059Z,86.02
2019-02-11T06:15:59.022Z,85.71
2019-02-11T06:16:58.018Z,85.82
2019-02-11T06:17:58.001Z,86.23
2019-02-11T06:18:57.992Z,85.92
2019-02-11T06:19:57.981Z,85.61
2019-02-11T06:20:57.991Z,85.82
2019-02-11T06:21:57.958Z,86.02
2019-02-11T06:22:57.945Z,85.92
2019-02-11T06:23:57.934Z,85.82
2019-02-11T06:24:57.925Z,85.92
2019-02-11T06:25:57.939Z,86.02
2019-02-11T06:26:57.901Z,85.61
2019-02-11T06:27:57.890Z,85.92
2019-02-11T06:28:57.878Z,83.54
2019-02-11T06:29:57.868Z,84.27
2019-02-11T06:30:57.881Z,84.47
2019-02-11T06:31:57.848Z,84.47
2019-02-11T06:32:57.834Z,84.37
2019-02-11T06:33:57.824Z,85.09
2019-02-11T06:34:57.813Z,85.82
2019-02-11T06:35:57.825Z,84.68
2019-02-11T06:36:57.791Z,84.78
2019-02-11T06:37:57.779Z,84.47
2019-02-11T06:38:57.768Z,84.30
2019-02-11T06:39:57.757Z,84.06
2019-02-11T06:40:57.770Z,84.30
2019-02-11T06:41:57.734Z,85.19
2019-02-11T06:42:57.724Z,85.65
2019-02-11T06:43:57.712Z,85.65
2019-02-11T06:44:57.703Z,84.78
2019-02-11T06:45:57.714Z,84.82
2019-02-11T06:46:57.679Z,84.82
2019-02-11T06:47:57.668Z,85.40
2019-02-11T06:48:57.657Z,84.51
2019-02-11T06:49:57.650Z,83.99
2019-02-11T06:50:57.657Z,84.61
2019-02-11T06:51:57.623Z,84.88
2019-02-11T06:52:57.613Z,84.88
2019-02-11T06:53:57.605Z,84.30
2019-02-11T06:54:57.590Z,84.78
2019-02-11T06:55:57.601Z,84.27
2019-02-11T06:56:57.568Z,84.47
2019-02-11T06:57:57.557Z,84.47
2019-02-11T06:58:57.547Z,84.37
2019-02-11T06:59:57.534Z,84.58
2019-02-11T07:00:57.545Z,85.09
2019-02-11T07:01:57.512Z,84.47
2019-02-11T07:02:57.504Z,84.78
2019-02-11T07:03:57.493Z,84.47
2019-02-11T07:04:57.478Z,83.95
2019-02-11T07:05:57.489Z,84.68
2019-02-11T07:06:57.457Z,84.99
2019-02-11T07:07:57.445Z,84.68
2019-02-11T07:08:57.433Z,84.47
2019-02-11T07:09:57.423Z,85.09
2019-02-11T07:10:57.434Z,84.06
2019-02-11T07:11:57.400Z,84.06
2019-02-11T07:12:57.389Z,84.58
2019-02-11T07:13:57.381Z,84.58
2019-02-11T07:14:57.367Z,84.37
2019-02-11T07:15:57.379Z,84.06
2019-02-11T07:16:57.348Z,83.95
2019-02-11T07:17:57.333Z,83.75
2019-02-11T07:18:57.322Z,84.27
2019-02-11T07:19:57.314Z,84.58
2019-02-11T07:20:57.337Z,84.16
2019-02-11T07:21:57.289Z,82.71
2019-02-11T07:22:57.279Z,83.75
2019-02-11T07:23:57.267Z,84.27
2019-02-11T07:24:57.257Z,84.58
2019-02-11T07:25:57.268Z,84.06
2019-02-11T07:26:57.233Z,83.44
2019-02-11T07:27:57.223Z,82.19
2019-02-11T07:28:57.212Z,82.71
2019-02-11T07:29:57.204Z,83.54
2019-02-11T07:30:57.216Z,84.47
2019-02-11T07:31:57.179Z,83.54
2019-02-11T07:32:57.169Z,84.58
2019-02-11T07:33:57.156Z,83.33
2019-02-11T07:34:57.147Z,84.22
2019-02-11T07:35:57.157Z,84.22
2019-02-11T07:36:57.124Z,82.64
2019-02-11T07:37:57.113Z,82.12
2019-02-11T07:38:57.114Z,81.81
2019-02-11T07:39:57.091Z,81.70
2019-02-11T07:40:57.088Z,80.98
2019-02-11T07:41:57.089Z,80.88
2019-02-11T07:42:57.055Z,81.39
2019-02-11T07:43:57.044Z,81.29
2019-02-11T07:44:57.033Z,81.81
2019-02-11T07:45:57.045Z,81.74
2019-02-11T07:46:57.010Z,81.43
2019-02-11T07:47:57.000Z,81.64
2019-02-11T07:48:56.990Z,82.26
2019-02-11T07:49:56.977Z,81.95
2019-02-11T07:50:56.967Z,82.15
2019-02-11T07:51:56.978Z,82.88
2019-02-11T07:52:56.944Z,82.67
2019-02-11T07:53:56.934Z,82.78
2019-02-11T07:54:56.922Z,82.67
2019-02-11T07:55:56.913Z,82.50
2019-02-11T07:56:56.924Z,82.71
2019-02-11T07:57:56.889Z,83.85
2019-02-11T07:58:56.878Z,83.95
2019-02-11T07:59:57.334Z,84.47
2019-02-11T08:00:56.856Z,83.75
2019-02-11T08:01:56.869Z,84.16
2019-02-11T08:02:56.833Z,83.85
2019-02-11T08:03:56.826Z,84.16
2019-02-11T08:04:56.810Z,84.68
2019-02-11T08:05:56.801Z,84.27
2019-02-11T08:06:56.811Z,83.75
2019-02-11T08:07:56.777Z,83.95
2019-02-11T08:08:56.768Z,84.16
2019-02-11T08:09:56.755Z,84.27
2019-02-11T08:10:56.746Z,85.30
2019-02-11T08:11:56.757Z,85.09
2019-02-11T08:12:56.721Z,83.95
2019-02-11T08:13:56.715Z,83.95
2019-02-11T08:14:56.700Z,84.16
2019-02-11T08:15:56.719Z,84.06
2019-02-11T08:16:56.700Z,84.47
2019-02-11T08:17:58.156Z,83.95
2019-02-11T08:18:56.653Z,83.95
2019-02-11T08:19:56.668Z,84.06
2019-02-11T08:20:56.632Z,83.29
2019-02-11T08:21:56.643Z,83.50
2019-02-11T08:22:56.623Z,83.91
2019-02-11T08:23:56.601Z,84.01
2019-02-11T08:24:56.589Z,84.64
2019-02-11T08:25:56.578Z,83.50
2019-02-11T08:26:56.590Z,83.09
2019-02-11T08:27:56.555Z,83.71
2019-02-11T08:28:56.543Z,83.71
2019-02-11T08:29:56.533Z,84.16
2019-02-11T08:30:56.521Z,83.91
2019-02-11T08:31:56.532Z,83.95
2019-02-11T08:32:56.502Z,84.12
2019-02-11T08:33:56.489Z,83.40
2019-02-11T08:34:56.479Z,82.67
2019-02-11T08:35:56.466Z,82.98
2019-02-11T08:36:56.477Z,82.78
2019-02-11T08:37:56.443Z,82.98
2019-02-11T08:38:56.432Z,82.88
2019-02-11T08:39:56.423Z,84.01
2019-02-11T08:40:56.418Z,82.67
2019-02-11T08:41:56.421Z,83.40
2019-02-11T08:42:56.387Z,83.91
2019-02-11T08:43:58.210Z,83.91
2019-02-11T08:44:56.367Z,82.46
2019-02-11T08:45:56.356Z,82.57
2019-02-11T08:46:56.367Z,82.57
2019-02-11T08:47:56.332Z,82.36
2019-02-11T08:48:56.327Z,82.57
2019-02-11T08:49:56.315Z,83.46
2019-02-11T08:50:56.303Z,82.67
2019-02-11T08:51:56.315Z,82.67
2019-02-11T08:52:56.278Z,83.19
2019-02-11T08:53:56.269Z,82.88
2019-02-11T08:54:56.255Z,82.98
2019-02-11T08:55:56.243Z,82.78
2019-02-11T08:56:57.475Z,82.88
2019-02-11T08:57:56.220Z,82.78
2019-02-11T08:58:56.210Z,83.56
2019-02-11T08:59:56.221Z,84.12
2019-02-11T09:00:56.188Z,82.98
2019-02-11T09:01:56.199Z,82.57
2019-02-11T09:02:56.164Z,82.53
2019-02-11T09:03:56.154Z,82.67
2019-02-11T09:04:56.145Z,82.32
2019-02-11T09:05:56.132Z,82.64
2019-02-11T09:06:56.144Z,82.74
2019-02-11T09:07:56.110Z,83.05
2019-02-11T09:08:56.099Z,83.05
2019-02-11T09:09:56.088Z,83.15
2019-02-11T09:10:56.077Z,82.32
2019-02-11T09:11:56.088Z,82.64
2019-02-11T09:12:56.054Z,82.53
2019-02-11T09:13:56.043Z,81.91
2019-02-11T09:14:56.032Z,81.91
2019-02-11T09:15:56.029Z,81.60
2019-02-11T09:16:56.036Z,81.60
2019-02-11T09:17:56.002Z,81.81
2019-02-11T09:18:55.988Z,81.46
2019-02-11T09:19:55.977Z,81.70
2019-02-11T09:20:55.965Z,82.01
2019-02-11T09:21:55.978Z,81.19
2019-02-11T09:22:55.944Z,81.29
2019-02-11T09:23:55.932Z,81.81
2019-02-11T09:24:55.923Z,81.29
2019-02-11T09:25:55.911Z,81.39
2019-02-11T09:26:55.901Z,81.70
2019-02-11T09:27:55.913Z,81.39
2019-02-11T09:28:55.878Z,81.70
2019-02-11T09:29:55.865Z,81.81
2019-02-11T09:30:55.859Z,81.39
2019-02-11T09:31:55.862Z,81.39
2019-02-11T09:32:55.858Z,81.39
2019-02-11T09:33:55.821Z,81.60
2019-02-11T09:34:55.818Z,81.49
2019-02-11T09:35:55.799Z,80.94
2019-02-11T09:36:55.791Z,80.84
2019-02-11T09:37:55.801Z,80.46
2019-02-11T09:38:55.768Z,79.84
2019-02-11T09:39:55.756Z,80.05
2019-02-11T09:40:55.746Z,80.60
2019-02-11T09:41:55.736Z,80.98
2019-02-11T09:42:55.746Z,80.50
2019-02-11T09:43:55.756Z,80.05
2019-02-11T09:44:55.701Z,79.63
2019-02-11T09:46:03.573Z,79.94
2019-02-11T09:46:56.681Z,80.36
2019-02-11T09:47:55.691Z,80.40
2019-02-11T09:48:55.666Z,80.26
2019-02-11T09:49:55.648Z,80.15
2019-02-11T09:50:55.638Z,79.84
2019-02-11T09:51:55.629Z,79.74
2019-02-11T09:52:55.636Z,80.15
2019-02-11T09:53:55.602Z,80.11
2019-02-11T09:54:55.591Z,79.49
2019-02-11T09:55:55.579Z,80.22
2019-02-11T09:56:55.569Z,78.77
2019-02-11T09:57:55.580Z,78.56
2019-02-11T09:58:55.547Z,78.15
2019-02-11T09:59:55.537Z,78.46
2019-02-11T10:00:55.525Z,79.08
2019-02-11T10:01:55.515Z,78.46
2019-02-11T10:02:55.528Z,78.56
2019-02-11T10:03:55.494Z,78.46
2019-02-11T10:04:55.482Z,78.36
2019-02-11T10:05:55.470Z,77.94
2019-02-11T10:06:55.469Z,78.15
2019-02-11T10:07:55.473Z,78.25
2019-02-11T10:08:55.439Z,79.08
2019-02-11T10:09:55.427Z,77.84
2019-02-11T10:10:55.417Z,77.74
2019-02-11T10:11:55.408Z,78.56
2019-02-11T10:12:55.421Z,78.36
2019-02-11T10:13:55.385Z,78.15
2019-02-11T10:14:55.374Z,77.74
2019-02-11T10:15:55.384Z,77.29
2019-02-11T10:16:55.353Z,77.29
2019-02-11T10:17:55.371Z,77.50
2019-02-11T10:18:55.331Z,76.36
2019-02-11T10:19:55.319Z,77.70
2019-02-11T10:20:55.308Z,78.53
2019-02-11T10:21:55.302Z,77.39
2019-02-11T10:22:55.311Z,77.81
2019-02-11T10:23:55.276Z,77.91
2019-02-11T10:24:55.264Z,77.19
2019-02-11T10:25:55.253Z,77.50
2019-02-11T10:26:55.242Z,76.73
2019-02-11T10:27:55.255Z,75.70
2019-02-11T10:28:55.224Z,76.05
2019-02-11T10:29:55.209Z,76.32
2019-02-11T10:30:55.198Z,77.50
2019-02-11T10:31:55.188Z,77.29
2019-02-11T10:32:55.203Z,77.60
2019-02-11T10:33:55.165Z,77.25
2019-02-11T10:34:55.155Z,76.73
2019-02-11T10:35:55.145Z,75.91
2019-02-11T10:36:55.136Z,75.81
2019-02-11T10:37:55.145Z,75.81
2019-02-11T10:38:55.115Z,75.91
2019-02-11T10:39:55.101Z,75.91
2019-02-11T10:40:55.093Z,76.32
2019-02-11T10:41:55.078Z,75.60
2019-02-11T10:42:55.091Z,75.39
2019-02-11T10:43:55.057Z,75.39
2019-02-11T10:44:55.046Z,75.81
2019-02-11T10:45:55.043Z,75.49
2019-02-11T10:46:55.025Z,75.49
2019-02-11T10:47:55.037Z,75.70
2019-02-11T10:48:55.002Z,75.60
2019-02-11T10:49:54.991Z,75.39
2019-02-11T10:50:54.981Z,76.01
2019-02-11T10:51:54.971Z,75.67
2019-02-11T10:52:54.982Z,76.29
2019-02-11T10:53:54.949Z,75.36
2019-02-11T10:54:54.937Z,75.09
2019-02-11T10:55:54.927Z,75.36
2019-02-11T10:56:54.915Z,75.36
2019-02-11T10:57:54.927Z,75.67
2019-02-11T10:58:54.896Z,74.98
2019-02-11T10:59:54.883Z,75.29
2019-02-11T11:00:54.872Z,75.87
2019-02-11T11:01:54.861Z,75.77
2019-02-11T11:02:54.853Z,75.67
2019-02-11T11:03:54.863Z,75.57
2019-02-11T11:04:54.829Z,75.77
2019-02-11T11:05:54.817Z,75.57
2019-02-11T11:06:54.808Z,75.36
2019-02-11T11:07:54.797Z,75.53
2019-02-11T11:08:54.808Z,73.47
2019-02-11T11:09:54.774Z,75.12
2019-02-11T11:10:54.763Z,74.91
2019-02-11T11:11:54.753Z,74.81
2019-02-11T11:12:54.743Z,75.60
2019-02-11T11:13:54.755Z,74.88
2019-02-11T11:14:54.723Z,75.81
2019-02-11T11:15:54.711Z,75.18
2019-02-11T11:16:54.698Z,75.49
2019-02-11T11:17:54.689Z,74.57
2019-02-11T11:18:54.697Z,74.88
2019-02-11T11:19:54.664Z,75.18
2019-02-11T11:20:54.656Z,74.98
2019-02-11T11:21:54.642Z,74.05
2019-02-11T11:22:54.630Z,74.05
2019-02-11T11:23:54.643Z,74.05
2019-02-11T11:24:54.613Z,74.26
2019-02-11T11:25:54.601Z,74.57
2019-02-11T11:26:54.586Z,74.67
2019-02-11T11:27:54.576Z,75.12
2019-02-11T11:28:54.588Z,74.15
2019-02-11T11:29:54.555Z,75.70
2019-02-11T11:30:54.542Z,75.09
2019-02-11T11:31:54.531Z,75.09
2019-02-11T11:32:54.554Z,76.12
2019-02-11T11:33:54.531Z,74.98
2019-02-11T11:34:54.498Z,75.60
2019-02-11T11:35:54.487Z,74.46
2019-02-11T11:36:54.481Z,74.98
2019-02-11T11:37:54.464Z,74.67
2019-02-11T11:38:54.475Z,74.67
2019-02-11T11:39:54.442Z,73.85
2019-02-11T11:40:54.433Z,74.77
2019-02-11T11:41:54.418Z,74.15
2019-02-11T11:42:54.413Z,73.22
2019-02-11T11:43:54.419Z,74.05
2019-02-11T11:44:54.393Z,74.05
2019-02-11T11:45:54.375Z,74.05
2019-02-11T11:46:54.364Z,74.05
2019-02-11T11:47:54.351Z,75.09
2019-02-11T11:48:54.364Z,73.74
2019-02-11T11:49:54.329Z,74.36
2019-02-11T11:50:54.317Z,75.81
2019-02-11T11:51:54.305Z,75.81
2019-02-11T11:52:54.296Z,74.05
2019-02-11T11:53:54.305Z,73.60
2019-02-11T11:54:54.271Z,74.15
2019-02-11T11:55:54.261Z,73.43
2019-02-11T11:56:54.258Z,73.85
2019-02-11T11:57:54.243Z,73.54
2019-02-11T11:58:55.005Z,73.22
2019-02-11T11:59:54.222Z,74.05
2019-02-11T12:00:54.207Z,74.26
2019-02-11T12:01:54.210Z,74.46
2019-02-11T12:03:04.230Z,74.84
2019-02-11T12:03:55.194Z,74.84
2019-02-11T12:04:54.163Z,74.02
2019-02-11T12:05:54.153Z,74.02
2019-02-11T12:06:54.154Z,74.22
2019-02-11T12:07:54.132Z,73.71
2019-02-11T12:08:54.140Z,74.02
2019-02-11T12:09:54.104Z,72.47
2019-02-11T12:10:54.109Z,73.19
2019-02-11T12:11:54.107Z,72.99
2019-02-11T12:12:54.075Z,72.88
2019-02-11T12:13:54.101Z,72.03
2019-02-11T12:14:54.050Z,72.13
2019-02-11T12:15:54.036Z,71.41
2019-02-11T12:16:57.784Z,71.51
2019-02-11T12:17:55.014Z,71.41
2019-02-11T12:18:54.035Z,72.13
2019-02-11T12:19:53.994Z,71.72
2019-02-11T12:20:53.984Z,71.51
2019-02-11T12:21:53.965Z,71.51
2019-02-11T12:22:53.970Z,71.72
2019-02-11T12:23:53.973Z,71.92
2019-02-11T12:24:53.936Z,72.85
2019-02-11T12:25:53.922Z,72.96
2019-02-11T12:26:53.915Z,72.23
2019-02-11T12:27:53.906Z,71.61
2019-02-11T12:28:53.913Z,71.92
2019-02-11T12:29:53.883Z,72.47
2019-02-11T12:30:54.000Z,71.95
2019-02-11T12:31:53.855Z,71.75
2019-02-11T12:32:55.460Z,71.85
2019-02-11T12:33:53.862Z,72.78
2019-02-11T12:34:53.818Z,72.58
2019-02-11T12:35:53.809Z,72.67
2019-02-11T12:36:53.811Z,72.78
2019-02-11T12:37:53.792Z,72.37
2019-02-11T12:38:53.801Z,72.67
2019-02-11T12:39:53.763Z,72.06
2019-02-11T12:40:53.769Z,71.34
2019-02-11T12:41:53.741Z,72.06
2019-02-11T12:42:54.332Z,72.88
2019-02-11T12:43:53.724Z,72.88
2019-02-11T12:44:53.729Z,72.27
2019-02-11T12:45:53.724Z,71.85
2019-02-11T12:46:53.751Z,72.06
2019-02-11T12:47:53.679Z,72.16
2019-02-11T12:48:53.669Z,72.27
2019-02-11T12:49:53.680Z,72.47
2019-02-11T12:50:53.635Z,72.27
2019-02-11T12:51:53.624Z,73.40